Time;durP1;ratioP1;P1;durP2;ratioP2;P2;SDS_P1;SDS_P2;PMS_P1;PMS_P2;Temp;Humidity;BMP_temperature;BMP_pressure;BME280_temperature;BME280_humidity;BME280_pressure;Samples;Min_cycle;Max_cycle;Signal;HPM_P1;HPM_P2
2022/03/23 00:01:30;;;;;;;;;;;22.70;34.20;;;;;;5068367;28;19939;-54
2022/03/23 00:03:55;;;;;;;;;;;22.70;34.30;;;;;;5067766;28;19920;-54
2022/03/23 00:06:21;;;;;;;;;;;22.70;34.30;;;;;;5068529;28;20407;-54
2022/03/23 00:08:46;;;;;;;;;;;22.70;34.30;;;;;;5067469;28;20423;-55
2022/03/23 00:11:12;;;;;;;;;;;22.70;34.30;;;;;;5068845;28;19916;-54
2022/03/23 00:13:38;;;;;;;;;;;22.60;34.20;;;;;;5068060;28;19927;-54
2022/03/23 00:16:03;;;;;;;;;;;22.60;34.20;;;;;;5067562;28;19913;-54
2022/03/23 00:18:29;;;;;;;;;;;22.60;34.20;;;;;;5068671;28;19912;-54
2022/03/23 00:20:54;;;;;;;;;;;22.60;34.30;;;;;;5066962;28;19920;-54
2022/03/23 00:23:20;;;;;;;;;;;22.60;34.20;;;;;;5069125;28;19912;-55
2022/03/23 00:25:45;;;;;;;;;;;22.60;34.30;;;;;;5067447;28;19924;-54
2022/03/23 00:28:11;;;;;;;;;;;22.60;34.30;;;;;;5066735;28;20340;-54
2022/03/23 00:30:36;;;;;;;;;;;22.60;34.30;;;;;;5067815;28;19916;-55
2022/03/23 00:33:02;;;;;;;;;;;22.60;34.30;;;;;;5067537;28;20199;-54
2022/03/23 00:35:29;;;;;;;;;;;22.50;34.30;;;;;;5068232;28;20452;-54
2022/03/23 00:37:55;;;;;;;;;;;22.50;34.30;;;;;;5067155;28;19920;-54
2022/03/23 00:40:21;;;;;;;;;;;22.50;34.30;;;;;;5067333;28;19912;-55
2022/03/23 00:42:46;;;;;;;;;;;22.50;34.30;;;;;;5067828;28;19924;-54
2022/03/23 00:45:12;;;;;;;;;;;22.50;34.40;;;;;;5065926;28;20462;-55
2022/03/23 00:47:38;;;;;;;;;;;22.50;34.40;;;;;;5068040;28;19913;-55
2022/03/23 00:50:04;;;;;;;;;;;22.50;34.40;;;;;;5066701;28;20439;-54
2022/03/23 00:52:29;;;;;;;;;;;22.40;34.30;;;;;;5067027;28;19999;-55
2022/03/23 00:54:55;;;;;;;;;;;22.40;34.40;;;;;;5068116;28;19916;-54
2022/03/23 00:57:20;;;;;;;;;;;22.40;34.30;;;;;;5064293;28;19917;-54
2022/03/23 00:59:46;;;;;;;;;;;22.40;34.40;;;;;;5068259;28;19990;-55
2022/03/23 01:02:11;;;;;;;;;;;22.40;34.30;;;;;;5067817;28;19924;-55
2022/03/23 01:04:37;;;;;;;;;;;22.40;34.30;;;;;;5067475;28;19916;-54
2022/03/23 01:07:03;;;;;;;;;;;22.40;34.40;;;;;;5065559;28;19952;-54
2022/03/23 01:09:28;;;;;;;;;;;22.40;34.40;;;;;;5067623;28;19927;-54
2022/03/23 01:11:54;;;;;;;;;;;22.40;34.30;;;;;;5068172;28;19927;-55
2022/03/23 01:14:19;;;;;;;;;;;22.40;34.40;;;;;;5066075;28;19918;-54
2022/03/23 01:16:45;;;;;;;;;;;22.30;34.30;;;;;;5067268;28;19913;-55
2022/03/23 01:19:10;;;;;;;;;;;22.30;34.30;;;;;;5068215;28;19999;-54
2022/03/23 01:21:36;;;;;;;;;;;22.30;34.30;;;;;;5066517;28;19924;-54
2022/03/23 01:24:01;;;;;;;;;;;22.30;34.30;;;;;;5068149;28;20007;-54
2022/03/23 01:26:27;;;;;;;;;;;22.30;34.40;;;;;;5065853;28;19944;-54
2022/03/23 01:28:52;;;;;;;;;;;22.30;34.40;;;;;;5065354;28;19924;-54
2022/03/23 01:31:18;;;;;;;;;;;22.30;34.30;;;;;;5062924;28;19920;-55
2022/03/23 01:33:43;;;;;;;;;;;22.20;34.30;;;;;;5069023;28;19920;-54
2022/03/23 01:36:09;;;;;;;;;;;22.20;34.40;;;;;;5071023;28;20002;-54
2022/03/23 01:38:34;;;;;;;;;;;22.20;34.50;;;;;;5070320;28;19948;-53
2022/03/23 01:41:00;;;;;;;;;;;22.20;34.30;;;;;;5070571;28;19942;-53
2022/03/23 01:43:25;;;;;;;;;;;22.20;34.40;;;;;;5070462;28;19926;-54
2022/03/23 01:45:51;;;;;;;;;;;22.20;34.40;;;;;;5070184;28;20308;-55
2022/03/23 01:48:16;;;;;;;;;;;22.20;34.40;;;;;;5071392;28;19917;-54
2022/03/23 01:50:42;;;;;;;;;;;22.20;34.40;;;;;;5068409;28;19917;-53
2022/03/23 01:53:07;;;;;;;;;;;22.20;34.40;;;;;;5070267;28;20383;-54
2022/03/23 01:55:32;;;;;;;;;;;22.20;34.50;;;;;;5071031;28;19916;-54
2022/03/23 01:57:58;;;;;;;;;;;22.20;34.40;;;;;;5067631;28;19920;-55
2022/03/23 02:00:24;;;;;;;;;;;22.10;34.40;;;;;;5069400;28;20007;-54
2022/03/23 02:02:49;;;;;;;;;;;22.10;34.50;;;;;;5069679;28;20280;-54
2022/03/23 02:05:14;;;;;;;;;;;22.10;34.40;;;;;;5069653;28;19932;-55
2022/03/23 02:07:40;;;;;;;;;;;22.10;34.30;;;;;;5071077;28;19931;-55
2022/03/23 02:10:06;;;;;;;;;;;22.10;34.20;;;;;;5070080;28;19919;-54
2022/03/23 02:12:31;;;;;;;;;;;22.10;34.20;;;;;;5069892;28;19913;-55
2022/03/23 02:14:58;;;;;;;;;;;22.10;34.30;;;;;;5069707;28;19923;-55
2022/03/23 02:17:24;;;;;;;;;;;22.20;34.30;;;;;;5070031;28;20033;-55
2022/03/23 02:19:49;;;;;;;;;;;22.20;35.00;;;;;;5070958;28;20414;-54
2022/03/23 02:22:15;;;;;;;;;;;22.10;35.20;;;;;;5069035;28;20296;-53
2022/03/23 02:24:40;;;;;;;;;;;22.10;35.20;;;;;;5070603;28;20300;-54
2022/03/23 02:27:06;;;;;;;;;;;22.10;35.20;;;;;;5067675;28;19912;-54
2022/03/23 02:29:32;;;;;;;;;;;22.20;35.30;;;;;;5067551;28;19920;-54
2022/03/23 02:31:58;;;;;;;;;;;22.20;35.30;;;;;;5070351;28;19912;-55
2022/03/23 02:34:25;;;;;;;;;;;22.30;35.40;;;;;;5068117;28;19966;-54
2022/03/23 02:36:51;;;;;;;;;;;22.30;35.30;;;;;;5070485;28;20007;-54
2022/03/23 02:39:16;;;;;;;;;;;22.40;35.20;;;;;;5069463;28;20007;-56
2022/03/23 02:41:42;;;;;;;;;;;22.40;35.00;;;;;;5069054;28;19920;-54
2022/03/23 02:44:08;;;;;;;;;;;22.50;34.90;;;;;;5069675;28;19920;-55
2022/03/23 02:46:35;;;;;;;;;;;22.50;34.90;;;;;;5069453;28;20410;-54
2022/03/23 02:49:01;;;;;;;;;;;22.50;34.80;;;;;;5070256;28;19912;-55
2022/03/23 02:51:26;;;;;;;;;;;22.50;34.80;;;;;;5067261;28;19919;-54
2022/03/23 03:02:33;;;;;;;;;;;22.50;34.40;;;;;;5063694;28;19939;-55
2022/03/23 03:05:00;;;;;;;;;;;22.50;34.10;;;;;;5067164;28;19920;-53
2022/03/23 03:07:25;;;;;;;;;;;22.50;34.30;;;;;;5068744;28;19928;-54
2022/03/23 03:09:50;;;;;;;;;;;22.40;34.10;;;;;;5068294;28;20299;-55
2022/03/23 03:12:16;;;;;;;;;;;22.50;34.00;;;;;;5069607;28;19913;-55
2022/03/23 03:14:42;;;;;;;;;;;22.40;33.60;;;;;;5069029;28;19996;-55
2022/03/23 03:17:07;;;;;;;;;;;22.50;33.70;;;;;;5068792;28;20356;-54
2022/03/23 03:19:33;;;;;;;;;;;22.50;33.60;;;;;;5068959;28;20392;-55
2022/03/23 03:21:59;;;;;;;;;;;22.50;33.50;;;;;;5067290;28;20027;-54
2022/03/23 03:24:25;;;;;;;;;;;22.50;33.50;;;;;;5068791;28;19912;-54
2022/03/23 03:26:51;;;;;;;;;;;22.40;33.40;;;;;;5068291;28;19962;-55
2022/03/23 03:29:17;;;;;;;;;;;22.40;33.50;;;;;;5068878;28;19912;-54
2022/03/23 03:31:42;;;;;;;;;;;22.40;33.60;;;;;;5064871;28;20521;-53
2022/03/23 03:34:08;;;;;;;;;;;22.30;33.60;;;;;;5066365;28;19935;-55
2022/03/23 03:36:34;;;;;;;;;;;22.30;33.70;;;;;;5062775;28;20478;-55
2022/03/23 03:38:59;;;;;;;;;;;22.30;33.60;;;;;;5066375;28;19930;-55
2022/03/23 03:41:26;;;;;;;;;;;22.30;33.60;;;;;;5067686;28;20005;-55
2022/03/23 03:43:51;;;;;;;;;;;22.30;33.50;;;;;;5068917;28;20413;-54
2022/03/23 03:46:16;;;;;;;;;;;22.30;33.60;;;;;;5068008;28;20011;-54
2022/03/23 03:48:42;;;;;;;;;;;22.40;33.70;;;;;;5069037;28;19917;-54
2022/03/23 03:51:08;;;;;;;;;;;22.30;33.50;;;;;;5068474;28;19956;-55
2022/03/23 03:53:34;;;;;;;;;;;22.40;33.60;;;;;;5067583;28;19921;-54
2022/03/23 03:55:59;;;;;;;;;;;22.40;33.50;;;;;;5068352;28;19913;-54
2022/03/23 03:58:25;;;;;;;;;;;22.40;33.50;;;;;;5066269;28;20012;-55
2022/03/23 04:00:50;;;;;;;;;;;22.30;33.40;;;;;;5068541;28;20423;-55
2022/03/23 04:03:16;;;;;;;;;;;22.30;33.40;;;;;;5066934;28;20355;-55
2022/03/23 04:05:41;;;;;;;;;;;22.30;33.50;;;;;;5068389;28;19958;-55
2022/03/23 04:08:07;;;;;;;;;;;22.30;33.40;;;;;;5067645;28;19927;-54
2022/03/23 04:10:33;;;;;;;;;;;22.30;33.40;;;;;;5068065;28;19966;-55
2022/03/23 04:12:58;;;;;;;;;;;22.30;33.50;;;;;;5065245;28;19919;-55
2022/03/23 04:15:25;;;;;;;;;;;22.30;33.50;;;;;;5067743;28;20364;-55
2022/03/23 04:17:52;;;;;;;;;;;22.30;33.50;;;;;;5068015;28;19912;-54
2022/03/23 04:20:17;;;;;;;;;;;22.20;33.40;;;;;;5068909;28;19913;-54
2022/03/23 04:22:43;;;;;;;;;;;22.20;33.40;;;;;;5066847;28;19920;-54
2022/03/23 04:25:08;;;;;;;;;;;22.20;33.50;;;;;;5068959;28;19922;-53
2022/03/23 04:27:34;;;;;;;;;;;22.20;33.50;;;;;;5067857;28;20280;-53
2022/03/23 04:30:00;;;;;;;;;;;22.20;33.40;;;;;;5068003;28;19917;-54
2022/03/23 04:32:25;;;;;;;;;;;22.20;33.50;;;;;;5066847;28;20333;-54
2022/03/23 04:34:51;;;;;;;;;;;22.20;33.50;;;;;;5065176;28;19913;-55
2022/03/23 04:37:16;;;;;;;;;;;22.20;33.50;;;;;;5068106;28;19920;-55
2022/03/23 04:39:42;;;;;;;;;;;22.20;33.60;;;;;;5067566;28;19928;-55
2022/03/23 04:42:07;;;;;;;;;;;22.20;33.50;;;;;;5067538;28;19920;-55
2022/03/23 04:44:32;;;;;;;;;;;22.20;33.50;;;;;;5068188;28;19916;-54
2022/03/23 04:46:58;;;;;;;;;;;22.20;33.40;;;;;;5067487;28;19924;-54
2022/03/23 04:49:23;;;;;;;;;;;22.20;33.50;;;;;;5068309;28;19923;-55
2022/03/23 04:51:51;;;;;;;;;;;22.20;33.50;;;;;;5067626;28;19923;-54
2022/03/23 04:54:16;;;;;;;;;;;22.20;33.50;;;;;;5066762;28;19912;-53
2022/03/23 04:56:42;;;;;;;;;;;22.20;33.50;;;;;;5068045;28;19919;-54
2022/03/23 04:59:07;;;;;;;;;;;22.20;33.50;;;;;;5067336;28;19919;-54
2022/03/23 05:01:34;;;;;;;;;;;22.20;33.70;;;;;;5064527;28;20480;-55
2022/03/23 05:03:59;;;;;;;;;;;22.20;33.70;;;;;;5065780;28;19920;-54
2022/03/23 05:06:25;;;;;;;;;;;22.20;33.60;;;;;;5067620;28;20356;-54
2022/03/23 05:08:50;;;;;;;;;;;22.20;33.50;;;;;;5067799;28;19928;-55
2022/03/23 05:11:16;;;;;;;;;;;22.20;33.30;;;;;;5071259;28;19912;-53
2022/03/23 05:13:41;;;;;;;;;;;22.30;33.40;;;;;;5068430;28;19966;-55
2022/03/23 05:16:07;;;;;;;;;;;22.20;33.30;;;;;;5069542;28;20307;-55
2022/03/23 05:18:33;;;;;;;;;;;22.20;33.40;;;;;;5071498;28;20030;-54
2022/03/23 05:20:58;;;;;;;;;;;22.20;33.40;;;;;;5070469;28;19958;-55
2022/03/23 05:23:24;;;;;;;;;;;22.20;33.30;;;;;;5069879;28;20372;-54
2022/03/23 05:25:49;;;;;;;;;;;22.20;33.30;;;;;;5071890;28;19912;-53
2022/03/23 05:28:15;;;;;;;;;;;22.20;33.40;;;;;;5067769;28;19917;-55
2022/03/23 05:30:40;;;;;;;;;;;22.20;33.40;;;;;;5071282;28;19919;-56
2022/03/23 05:33:05;;;;;;;;;;;22.20;33.40;;;;;;5063750;28;20337;-54
2022/03/23 05:35:31;;;;;;;;;;;22.10;33.30;;;;;;5070062;28;19965;-54
2022/03/23 05:37:57;;;;;;;;;;;22.20;33.40;;;;;;5070222;28;19926;-53
2022/03/23 05:40:23;;;;;;;;;;;22.10;33.30;;;;;;5069056;28;19917;-53
2022/03/23 05:42:49;;;;;;;;;;;22.10;33.30;;;;;;5070943;28;19928;-54
2022/03/23 05:45:14;;;;;;;;;;;22.10;33.30;;;;;;5070713;28;19913;-55
2022/03/23 05:47:43;;;;;;;;;;;22.10;33.40;;;;;;5069820;28;19991;-54
2022/03/23 05:50:09;;;;;;;;;;;22.10;33.30;;;;;;5066560;28;19965;-54
2022/03/23 05:52:35;;;;;;;;;;;22.10;33.40;;;;;;5069414;28;19920;-54
2022/03/23 05:55:01;;;;;;;;;;;22.10;33.30;;;;;;5070345;28;20337;-55
2022/03/23 05:57:27;;;;;;;;;;;22.10;33.30;;;;;;5068212;28;19912;-54
2022/03/23 05:59:52;;;;;;;;;;;22.10;33.30;;;;;;5069246;28;19912;-54
2022/03/23 06:02:18;;;;;;;;;;;22.10;33.30;;;;;;5070829;28;19920;-54
2022/03/23 06:04:44;;;;;;;;;;;22.10;33.30;;;;;;5070496;28;19928;-55
2022/03/23 06:07:09;;;;;;;;;;;22.10;33.30;;;;;;5069058;28;20007;-54
2022/03/23 06:09:34;;;;;;;;;;;22.10;33.30;;;;;;5067148;28;19959;-55
2022/03/23 06:12:01;;;;;;;;;;;22.10;33.30;;;;;;5069238;28;19909;-54
2022/03/23 06:14:27;;;;;;;;;;;22.10;33.60;;;;;;5068387;28;19913;-54
2022/03/23 06:16:52;;;;;;;;;;;22.10;33.30;;;;;;5067912;28;19920;-55
2022/03/23 06:19:18;;;;;;;;;;;22.10;33.40;;;;;;5069584;28;19917;-55
2022/03/23 06:21:44;;;;;;;;;;;22.10;33.40;;;;;;5071027;28;20023;-55
2022/03/23 06:24:09;;;;;;;;;;;22.10;33.30;;;;;;5068788;28;19999;-54
2022/03/23 06:26:35;;;;;;;;;;;22.00;33.40;;;;;;5069733;28;19994;-55
2022/03/23 06:29:00;;;;;;;;;;;22.00;33.50;;;;;;5069564;28;19916;-53
2022/03/23 06:31:26;;;;;;;;;;;22.10;33.60;;;;;;5068326;28;19919;-54
2022/03/23 06:33:51;;;;;;;;;;;22.10;33.60;;;;;;5068842;28;19912;-54
2022/03/23 06:36:17;;;;;;;;;;;22.10;33.60;;;;;;5069471;28;19912;-55
2022/03/23 06:38:42;;;;;;;;;;;22.10;33.60;;;;;;5069556;28;19913;-55
2022/03/23 06:41:08;;;;;;;;;;;22.00;33.40;;;;;;5069173;28;19987;-52
2022/03/23 06:43:33;;;;;;;;;;;22.00;33.40;;;;;;5069290;28;19916;-54
2022/03/23 06:45:59;;;;;;;;;;;22.00;33.40;;;;;;5070210;28;19916;-53
2022/03/23 06:48:24;;;;;;;;;;;21.90;33.40;;;;;;5068166;28;19912;-55
2022/03/23 06:50:50;;;;;;;;;;;22.00;33.50;;;;;;5069999;28;19958;-55
2022/03/23 06:53:15;;;;;;;;;;;22.00;33.50;;;;;;5063731;28;19970;-55
2022/03/23 06:55:41;;;;;;;;;;;22.00;33.40;;;;;;5068418;28;19917;-54
2022/03/23 06:58:06;;;;;;;;;;;22.00;34.10;;;;;;5069165;28;19913;-54
2022/03/23 07:00:32;;;;;;;;;;;22.10;33.50;;;;;;5066712;28;19913;-54
2022/03/23 07:02:57;;;;;;;;;;;22.10;33.60;;;;;;5066157;28;20013;-55
2022/03/23 07:05:23;;;;;;;;;;;22.00;33.60;;;;;;5067092;28;19978;-54
2022/03/23 07:10:34;;;;;;;;;;;22.00;33.80;;;;;;5066601;28;19939;-55
2022/03/23 07:12:59;;;;;;;;;;;22.00;33.80;;;;;;5061889;28;19924;-55
2022/03/23 07:15:25;;;;;;;;;;;22.00;33.90;;;;;;5068261;28;19912;-54
2022/03/23 07:17:50;;;;;;;;;;;22.00;33.90;;;;;;5065355;28;19924;-55
2022/03/23 07:20:16;;;;;;;;;;;22.00;34.10;;;;;;5063831;28;19912;-55
2022/03/23 07:22:41;;;;;;;;;;;22.00;34.30;;;;;;5067898;28;19912;-55
2022/03/23 07:25:07;;;;;;;;;;;22.10;34.30;;;;;;5072541;28;19908;-55
2022/03/23 07:27:32;;;;;;;;;;;22.40;34.10;;;;;;5067783;28;19966;-55
2022/03/23 07:29:58;;;;;;;;;;;22.70;33.70;;;;;;5072594;28;20388;-55
2022/03/23 07:32:24;;;;;;;;;;;22.90;33.20;;;;;;5066115;28;19920;-55
2022/03/23 07:34:49;;;;;;;;;;;23.20;32.80;;;;;;5068323;28;19917;-55
2022/03/23 07:37:15;;;;;;;;;;;23.50;32.40;;;;;;5071328;28;19992;-55
2022/03/23 07:39:40;;;;;;;;;;;23.80;32.10;;;;;;5071289;28;19920;-55
2022/03/23 07:42:06;;;;;;;;;;;24.10;32.00;;;;;;5071699;28;19924;-54
2022/03/23 07:44:34;;;;;;;;;;;24.30;31.60;;;;;;5071927;28;19913;-55
2022/03/23 07:47:00;;;;;;;;;;;24.50;31.50;;;;;;5071739;28;19908;-55
2022/03/23 07:49:25;;;;;;;;;;;24.60;31.20;;;;;;5070928;28;19914;-56
2022/03/23 07:51:51;;;;;;;;;;;24.90;31.00;;;;;;5065833;28;19966;-54
2022/03/23 07:54:16;;;;;;;;;;;25.00;30.90;;;;;;5071139;28;19909;-55
2022/03/23 07:56:42;;;;;;;;;;;25.20;31.40;;;;;;5069737;28;19908;-54
2022/03/23 07:59:07;;;;;;;;;;;25.30;30.50;;;;;;5071054;28;20003;-55
2022/03/23 08:01:33;;;;;;;;;;;25.40;30.30;;;;;;5071347;28;19929;-55
2022/03/23 08:04:00;;;;;;;;;;;25.40;30.30;;;;;;5070802;28;19919;-54
2022/03/23 08:06:26;;;;;;;;;;;25.50;30.30;;;;;;5070498;28;19908;-55
2022/03/23 08:08:52;;;;;;;;;;;25.60;30.30;;;;;;5070148;28;19926;-53
2022/03/23 08:11:17;;;;;;;;;;;25.60;30.20;;;;;;5054642;28;19930;-55
2022/03/23 08:13:43;;;;;;;;;;;25.60;30.30;;;;;;5070289;28;19909;-55
2022/03/23 08:16:09;;;;;;;;;;;25.50;30.30;;;;;;5071548;28;19912;-54
2022/03/23 08:18:35;;;;;;;;;;;25.50;30.40;;;;;;5070981;28;19909;-54
2022/03/23 08:21:00;;;;;;;;;;;25.40;30.60;;;;;;5068546;28;19916;-53
2022/03/23 08:23:26;;;;;;;;;;;25.40;30.70;;;;;;5070383;28;19908;-55
2022/03/23 08:25:51;;;;;;;;;;;25.30;30.90;;;;;;5065570;28;20284;-55
2022/03/23 08:28:17;;;;;;;;;;;25.10;31.10;;;;;;5066835;28;19965;-54
2022/03/23 08:30:43;;;;;;;;;;;25.00;31.20;;;;;;5069128;28;20010;-55
2022/03/23 08:33:08;;;;;;;;;;;25.00;31.40;;;;;;5071041;28;20349;-56
2022/03/23 08:35:34;;;;;;;;;;;25.00;31.50;;;;;;5071594;28;19921;-54
2022/03/23 08:37:59;;;;;;;;;;;24.90;31.60;;;;;;5070833;28;20391;-55
2022/03/23 08:40:25;;;;;;;;;;;24.90;31.70;;;;;;5071449;28;19915;-54
2022/03/23 08:42:50;;;;;;;;;;;25.00;32.50;;;;;;5073340;28;19912;-55
2022/03/23 08:45:16;;;;;;;;;;;25.00;31.80;;;;;;5075552;28;19916;-54
2022/03/23 08:47:41;;;;;;;;;;;25.00;31.80;;;;;;5065023;28;19909;-54
2022/03/23 08:50:07;;;;;;;;;;;25.00;31.90;;;;;;5075651;28;19916;-54
2022/03/23 08:52:34;;;;;;;;;;;24.90;31.90;;;;;;5072855;28;19912;-55
2022/03/23 08:55:00;;;;;;;;;;;24.80;32.10;;;;;;5075795;28;19919;-56
2022/03/23 08:57:25;;;;;;;;;;;24.70;32.20;;;;;;5074000;28;19962;-55
2022/03/23 08:59:51;;;;;;;;;;;24.70;32.30;;;;;;5071377;28;20357;-54
2022/03/23 09:02:17;;;;;;;;;;;24.70;32.30;;;;;;5074913;28;20331;-55
2022/03/23 09:04:42;;;;;;;;;;;24.80;32.40;;;;;;5073846;28;19962;-56
2022/03/23 09:07:08;;;;;;;;;;;24.80;32.40;;;;;;5073201;28;19921;-55
2022/03/23 09:09:33;;;;;;;;;;;24.70;32.30;;;;;;5074711;28;20343;-54
2022/03/23 09:11:59;;;;;;;;;;;24.70;32.40;;;;;;5071682;28;20446;-55
2022/03/23 09:14:24;;;;;;;;;;;24.70;32.40;;;;;;5068496;28;20425;-55
2022/03/23 09:16:49;;;;;;;;;;;24.70;32.50;;;;;;5058987;28;20433;-55
2022/03/23 09:19:19;;;;;;;;;;;24.70;32.60;;;;;;5074377;28;20261;-55
2022/03/23 09:21:48;;;;;;;;;;;24.70;32.60;;;;;;5064168;28;19912;-55
2022/03/23 09:24:14;;;;;;;;;;;24.70;32.60;;;;;;5073625;28;19916;-54
2022/03/23 09:26:40;;;;;;;;;;;24.70;32.70;;;;;;5074260;28;19969;-55
2022/03/23 09:29:06;;;;;;;;;;;24.70;32.80;;;;;;5071433;28;20295;-55
2022/03/23 09:31:31;;;;;;;;;;;24.60;32.80;;;;;;5073689;28;20007;-54
2022/03/23 09:33:57;;;;;;;;;;;24.60;33.00;;;;;;5073548;28;20001;-53
2022/03/23 09:37:47;;;;;;;;;;;24.50;33.00;;;;;;5069302;28;19909;-54
2022/03/23 09:39:08;;;;;;;;;;;24.50;33.10;;;;;;5071765;28;19908;-54
2022/03/23 09:41:34;;;;;;;;;;;24.50;33.20;;;;;;5074326;28;20324;-55
2022/03/23 09:44:00;;;;;;;;;;;24.40;33.30;;;;;;5073871;28;19916;-54
2022/03/23 09:46:25;;;;;;;;;;;24.40;33.30;;;;;;5068362;28;19927;-55
2022/03/23 09:48:51;;;;;;;;;;;24.40;33.40;;;;;;5066537;28;19913;-54
2022/03/23 09:51:17;;;;;;;;;;;24.40;33.30;;;;;;5069762;28;19991;-55
2022/03/23 09:53:42;;;;;;;;;;;24.40;33.50;;;;;;5068655;28;19989;-54
2022/03/23 09:56:07;;;;;;;;;;;24.40;33.40;;;;;;5073747;28;19919;-54
2022/03/23 09:58:33;;;;;;;;;;;24.50;33.40;;;;;;5072604;28;19971;-54
2022/03/23 10:00:59;;;;;;;;;;;24.50;33.30;;;;;;5073772;28;20338;-55
2022/03/23 10:03:43;;;;;;;;;;;24.60;33.20;;;;;;5072140;28;20260;-55
2022/03/23 10:06:18;;;;;;;;;;;24.70;33.20;;;;;;5069680;28;19916;-54
2022/03/23 10:09:02;;;;;;;;;;;24.70;33.20;;;;;;5068618;28;19928;-55
2022/03/23 10:11:46;;;;;;;;;;;24.80;33.20;;;;;;5073141;28;19958;-53
2022/03/23 10:14:12;;;;;;;;;;;24.80;33.10;;;;;;5060872;28;19974;-55
2022/03/23 10:16:56;;;;;;;;;;;24.80;33.10;;;;;;5067966;28;19909;-54
2022/03/23 10:19:22;;;;;;;;;;;24.80;33.10;;;;;;5057525;28;19909;-54
2022/03/23 10:21:48;;;;;;;;;;;24.80;33.10;;;;;;5073507;28;19916;-55
2022/03/23 10:24:14;;;;;;;;;;;24.80;33.20;;;;;;5074740;28;19978;-55
2022/03/23 10:26:43;;;;;;;;;;;24.80;33.20;;;;;;5073365;28;20283;-56
2022/03/23 10:29:22;;;;;;;;;;;24.70;33.20;;;;;;5072375;28;19908;-55
2022/03/23 10:31:57;;;;;;;;;;;24.70;33.30;;;;;;5073240;28;19919;-54
2022/03/23 10:34:23;;;;;;;;;;;24.70;33.40;;;;;;5073101;28;19909;-54
2022/03/23 10:36:51;;;;;;;;;;;24.70;33.40;;;;;;5072684;28;19958;-56
2022/03/23 10:39:18;;;;;;;;;;;24.60;33.50;;;;;;5057735;28;20011;-55
2022/03/23 10:41:43;;;;;;;;;;;24.60;33.50;;;;;;5074010;28;19920;-56
2022/03/23 10:44:15;;;;;;;;;;;24.60;33.70;;;;;;5071581;28;19913;-55
2022/03/23 10:46:41;;;;;;;;;;;24.60;33.60;;;;;;5070836;28;19909;-56
2022/03/23 10:49:07;;;;;;;;;;;24.60;33.40;;;;;;5071798;28;19913;-55
2022/03/23 10:51:33;;;;;;;;;;;24.70;33.30;;;;;;5073191;28;19948;-54
2022/03/23 10:53:59;;;;;;;;;;;24.70;33.10;;;;;;5070098;28;19987;-54
2022/03/23 10:56:30;;;;;;;;;;;24.70;33.70;;;;;;5071405;28;20361;-54
2022/03/23 10:59:15;;;;;;;;;;;24.80;33.00;;;;;;5070940;28;19908;-55
2022/03/23 11:01:59;;;;;;;;;;;24.80;33.00;;;;;;5062031;28;19912;-56
2022/03/23 11:04:28;;;;;;;;;;;24.80;32.90;;;;;;5065735;28;19923;-54
2022/03/23 11:06:54;;;;;;;;;;;24.90;32.80;;;;;;5069635;28;19928;-55
2022/03/23 11:17:47;;;;;;;;;;;24.90;32.50;;;;;;5052495;28;19915;-54
2022/03/23 11:20:15;;;;;;;;;;;24.90;32.60;;;;;;5065957;28;20491;-56
2022/03/23 11:22:41;;;;;;;;;;;24.90;32.80;;;;;;5072372;28;19961;-54
2022/03/23 11:25:06;;;;;;;;;;;24.80;32.70;;;;;;5072835;28;20404;-55
2022/03/23 11:27:31;;;;;;;;;;;24.80;32.70;;;;;;5062330;28;19908;-55
2022/03/23 11:29:57;;;;;;;;;;;24.80;32.70;;;;;;5052595;28;19915;-54
2022/03/23 11:32:32;;;;;;;;;;;24.80;32.60;;;;;;5054156;28;19994;-55
2022/03/23 11:34:57;;;;;;;;;;;24.90;32.50;;;;;;5070063;28;20011;-53
2022/03/23 11:37:26;;;;;;;;;;;24.90;32.30;;;;;;5057170;28;20341;-54
2022/03/23 11:39:52;;;;;;;;;;;25.00;32.30;;;;;;5053098;28;19959;-54
2022/03/23 11:42:19;;;;;;;;;;;25.00;32.20;;;;;;5052519;28;19920;-55
2022/03/23 11:44:46;;;;;;;;;;;24.90;32.20;;;;;;5062850;28;20001;-54
2022/03/23 11:47:19;;;;;;;;;;;24.90;32.30;;;;;;5072722;28;20399;-55
2022/03/23 11:49:49;;;;;;;;;;;24.90;32.40;;;;;;5071092;28;19908;-55
2022/03/23 11:52:27;;;;;;;;;;;24.90;32.40;;;;;;5070192;28;20015;-54
2022/03/23 11:57:55;;;;;;;;;;;24.80;32.30;;;;;;5072337;28;19965;-54
2022/03/23 12:00:35;;;;;;;;;;;24.80;32.30;;;;;;5072745;28;19908;-53
2022/03/23 12:03:01;;;;;;;;;;;24.80;32.30;;;;;;5067414;28;20153;-55
2022/03/23 12:05:28;;;;;;;;;;;24.70;32.30;;;;;;5086747;28;20296;-54
2022/03/23 12:07:54;;;;;;;;;;;24.70;32.30;;;;;;5069705;28;19932;-55
2022/03/23 12:10:22;;;;;;;;;;;24.70;32.30;;;;;;5070331;28;19913;-54
2022/03/23 12:12:48;;;;;;;;;;;24.70;32.50;;;;;;5063481;28;19920;-55
2022/03/23 12:15:19;;;;;;;;;;;24.70;32.50;;;;;;5051276;28;19916;-55
2022/03/23 12:17:54;;;;;;;;;;;24.80;32.50;;;;;;5055972;28;19912;-54
2022/03/23 12:20:28;;;;;;;;;;;24.80;32.60;;;;;;5062536;28;20628;-55
2022/03/23 12:23:01;;;;;;;;;;;24.80;32.60;;;;;;5058594;28;20160;-55
2022/03/23 12:25:31;;;;;;;;;;;24.80;32.60;;;;;;5067281;28;19913;-55
2022/03/23 12:28:15;;;;;;;;;;;24.80;32.50;;;;;;5066580;28;19916;-54
2022/03/23 12:30:52;;;;;;;;;;;24.80;32.70;;;;;;5067227;28;19916;-55
2022/03/23 12:33:21;;;;;;;;;;;24.90;32.80;;;;;;5069240;28;19956;-55
2022/03/23 12:35:47;;;;;;;;;;;25.00;32.70;;;;;;5067992;28;19917;-55
2022/03/23 12:38:16;;;;;;;;;;;25.10;32.60;;;;;;5061236;28;19927;-55
2022/03/23 12:40:42;;;;;;;;;;;25.20;32.70;;;;;;5064463;28;20345;-55
2022/03/23 12:43:08;;;;;;;;;;;25.30;32.80;;;;;;5065928;28;19920;-54
2022/03/23 12:45:34;;;;;;;;;;;25.30;32.80;;;;;;5067894;28;19921;-54
2022/03/23 12:48:05;;;;;;;;;;;25.30;32.90;;;;;;5067056;28;19952;-55
2022/03/23 12:59:11;;;;;;;;;;;25.40;33.20;;;;;;5061959;28;20395;-55
2022/03/23 13:01:38;;;;;;;;;;;25.40;33.20;;;;;;5062531;28;19920;-55
2022/03/23 13:04:03;;;;;;;;;;;25.40;33.20;;;;;;5067775;28;19919;-55
2022/03/23 13:06:33;;;;;;;;;;;25.40;33.20;;;;;;5066544;28;19916;-54
2022/03/23 13:08:58;;;;;;;;;;;25.40;33.30;;;;;;5066930;28;19922;-55
2022/03/23 13:11:24;;;;;;;;;;;25.40;33.40;;;;;;5068408;28;20015;-55
2022/03/23 13:13:51;;;;;;;;;;;25.40;33.40;;;;;;5067172;28;19958;-54
2022/03/23 13:16:17;;;;;;;;;;;25.40;33.40;;;;;;5068252;28;19916;-55
2022/03/23 13:18:44;;;;;;;;;;;25.30;33.50;;;;;;5065519;28;19912;-54
2022/03/23 13:21:11;;;;;;;;;;;25.30;33.50;;;;;;5067463;28;19916;-55
2022/03/23 13:23:39;;;;;;;;;;;25.30;33.50;;;;;;5067548;28;19999;-55
2022/03/23 13:26:05;;;;;;;;;;;25.30;33.50;;;;;;5066438;28;20206;-56
2022/03/23 13:28:34;;;;;;;;;;;25.30;33.30;;;;;;5067462;28;20426;-55
2022/03/23 13:30:59;;;;;;;;;;;25.40;33.20;;;;;;5070496;28;19955;-55
2022/03/23 13:33:27;;;;;;;;;;;25.40;33.10;;;;;;5070029;28;19947;-54
2022/03/23 13:35:54;;;;;;;;;;;25.50;33.10;;;;;;5070308;28;19917;-54
2022/03/23 13:38:20;;;;;;;;;;;25.60;33.00;;;;;;5069533;28;19917;-56
2022/03/23 13:43:32;;;;;;;;;;;25.70;32.80;;;;;;5072238;28;19982;-55
2022/03/23 13:45:58;;;;;;;;;;;25.70;32.90;;;;;;5070446;28;19913;-55
2022/03/23 13:48:26;;;;;;;;;;;25.70;33.00;;;;;;5071814;28;19916;-55
2022/03/23 13:50:52;;;;;;;;;;;25.60;33.10;;;;;;5070878;28;19913;-54
2022/03/23 13:53:18;;;;;;;;;;;25.60;33.10;;;;;;5070096;28;20291;-55
2022/03/23 13:55:47;;;;;;;;;;;25.60;33.30;;;;;;5071655;28;19982;-55
2022/03/23 13:58:12;;;;;;;;;;;25.50;33.40;;;;;;5067302;28;20035;-55
2022/03/23 14:00:38;;;;;;;;;;;25.50;33.50;;;;;;5071581;28;19996;-55
2022/03/23 14:03:03;;;;;;;;;;;25.40;33.50;;;;;;5069407;28;19924;-55
2022/03/23 14:05:29;;;;;;;;;;;25.40;33.70;;;;;;5070845;28;20411;-56
2022/03/23 14:07:58;;;;;;;;;;;25.30;33.60;;;;;;5070826;28;19935;-54
2022/03/23 14:10:31;;;;;;;;;;;25.30;33.80;;;;;;5069634;28;19920;-54
2022/03/23 14:12:57;;;;;;;;;;;25.20;33.80;;;;;;5070741;28;20339;-55
2022/03/23 14:15:22;;;;;;;;;;;25.20;33.90;;;;;;5071289;28;20007;-53
2022/03/23 14:17:48;;;;;;;;;;;25.20;34.00;;;;;;5069787;28;19924;-53
2022/03/23 14:20:13;;;;;;;;;;;25.20;34.10;;;;;;5070141;28;19917;-55
2022/03/23 14:22:39;;;;;;;;;;;25.10;34.00;;;;;;5067384;28;19920;-55
2022/03/23 14:25:04;;;;;;;;;;;25.20;34.10;;;;;;5063820;28;20398;-55
2022/03/23 14:27:34;;;;;;;;;;;25.10;34.00;;;;;;5068136;28;20447;-54
2022/03/23 14:30:09;;;;;;;;;;;25.10;33.90;;;;;;5065281;28;19920;-55
2022/03/23 14:32:42;;;;;;;;;;;25.10;33.90;;;;;;5068869;28;20043;-53
2022/03/23 14:35:10;;;;;;;;;;;25.20;33.80;;;;;;5068210;28;20331;-54
2022/03/23 14:37:36;;;;;;;;;;;25.30;33.60;;;;;;5068376;28;19913;-54
2022/03/23 14:40:31;;;;;;;;;;;25.50;33.40;;;;;;5069810;28;19956;-55
2022/03/23 14:42:59;;;;;;;;;;;25.60;33.30;;;;;;5065577;28;20403;-55
2022/03/23 14:45:31;;;;;;;;;;;25.60;33.10;;;;;;5069696;28;20003;-55
2022/03/23 14:47:58;;;;;;;;;;;25.80;33.10;;;;;;5069422;28;19913;-55